»·PEaware :: SWR38 LSZH-KSFO

SWR38 :: LSZH-KSFO

FLIGHT INFORMATION

Flight Status: Arrived
Operator:
Swiss Airlines
More flights by this operator :: More flights under this callsign
Pilot: Alex E. (22672)
Aircraft: Unknown
(B77W)
More flights by this aircraft type
Origin: LSZH Zurich
Switzerland
Destination: KSFO San Francisco Intl
United States
More flights between these airports :: More routes between these airports
Route: +DEGE2H DEGES Z1 ETAGO HAREM UN851 MASEK UL126 WRB UZ710 LUTIR Z710 BAVTA P992 ISVIG/M083F320 67N010W 70N020W 74N040W 74N060W DAPAK/N0477F340 7230N08000W 70N090W 6630N10000W ALSAB YSM YZU/N0475F360 SENSA MWH RBL MRRLO BDEGA3
File this flight plan on PilotEdge
Remarks: PBN / A1B1C1D1L1O1S1S2 DOF / 181229 REG / HBJNF EET / EDUU0010 EDVV0043 EKDK0115 ENOR0132 BIRD0233 67N010W0322 BGGL0400 74N040W0459 74N060W0543 CZEG0609 CZVR0951 KZSE1013 KZOA1112 OPR / SWR PER / D RALT / BGSF CYFB RMK / TCAS
Altitude:
(Current/Filed)
30,000ft
Speed:
(Current/Filed)
482kts
Departed: 28-Dec-18 01:52 PM
Arrived: 28-Dec-18 03:57 PM
Distance/Time
Traveled:
5060nm/2:04
Distance/Time
To Go:
Arrived

Flight Plot

Page will automatically refresh every two minutes.

Flight plan parsing failed; only flown route is shown


Map Options




Map Legend


Flown Route
Filed Route
Departure Airport
Arrival Airport
Navaid (VOR, NDB)
Fix

Horizontal Profiles

Position Reports

Time Latitude Longitude Heading Altitude Ground
Speed
28-Dec-18 13:50 53.489297 -116.228779 209 35852ft 482kts
28-Dec-18 13:51 53.363551 -116.310045 209 35854ft 484kts
28-Dec-18 13:52 53.237750 -116.390676 209 35861ft 486kts
28-Dec-18 13:53 53.111298 -116.471206 209 35870ft 486kts
28-Dec-18 13:54 52.984810 -116.551256 209 35887ft 487kts
28-Dec-18 13:55 52.857821 -116.631112 209 35909ft 489kts
28-Dec-18 13:56 52.730391 -116.710746 209 35938ft 490kts
28-Dec-18 13:57 52.602695 -116.790050 209 35971ft 490kts
28-Dec-18 13:58 52.475033 -116.868838 209 36007ft 490kts
28-Dec-18 13:59 52.347014 -116.947356 209 36046ft 490kts
28-Dec-18 14:00 52.219564 -117.025044 209 36146ft 491kts
28-Dec-18 14:01 52.091261 -117.102770 209 36192ft 491kts
28-Dec-18 14:02 51.963053 -117.179966 209 36213ft 492kts
28-Dec-18 14:03 51.833824 -117.257279 209 36229ft 496kts
28-Dec-18 14:04 51.704613 -117.334146 209 36243ft 496kts
28-Dec-18 14:05 51.574929 -117.410811 209 36252ft 495kts
28-Dec-18 14:06 51.445468 -117.486872 209 36258ft 495kts
28-Dec-18 14:07 51.315860 -117.562569 208 36261ft 497kts
28-Dec-18 14:08 51.185631 -117.638165 208 36271ft 497kts
28-Dec-18 14:09 51.055495 -117.713256 208 36275ft 499kts
28-Dec-18 14:10 50.924427 -117.788428 208 36278ft 501kts
28-Dec-18 14:11 50.792795 -117.863477 208 36281ft 503kts
28-Dec-18 14:12 50.661159 -117.938078 208 36282ft 504kts
28-Dec-18 14:13 50.528776 -118.012651 208 36286ft 506kts
28-Dec-18 14:14 50.396327 -118.086825 208 36290ft 506kts
28-Dec-18 14:15 50.263285 -118.160885 208 36295ft 507kts
28-Dec-18 14:16 50.130522 -118.234354 208 36297ft 508kts
28-Dec-18 14:17 49.996947 -118.307837 208 36300ft 508kts
28-Dec-18 14:18 49.863402 -118.380877 208 36315ft 508kts
28-Dec-18 14:19 49.730007 -118.453684 208 36318ft 509kts
28-Dec-18 14:20 49.596183 -118.525906 207 36321ft 510kts
28-Dec-18 14:21 49.461461 -118.597080 204 36323ft 515kts
28-Dec-18 14:22 49.319825 -118.644640 198 36339ft 522kts
28-Dec-18 14:23 49.209262 -118.679873 199 36355ft 522kts
28-Dec-18 14:24 49.095908 -118.717250 199 36358ft 522kts
28-Dec-18 14:25 48.953828 -118.764229 199 36363ft 523kts
28-Dec-18 14:26 48.811173 -118.810952 199 36371ft 525kts
28-Dec-18 14:27 48.668208 -118.857490 198 36379ft 526kts
28-Dec-18 14:28 48.524967 -118.903846 198 36382ft 527kts
28-Dec-18 14:29 48.381390 -118.950040 198 36390ft 527kts
28-Dec-18 14:30 48.237939 -118.995931 198 36389ft 528kts
28-Dec-18 14:31 48.094200 -119.041652 198 36386ft 528kts
28-Dec-18 14:32 47.949976 -119.087281 197 36384ft 529kts
28-Dec-18 14:33 47.805262 -119.132774 197 36384ft 532kts
28-Dec-18 14:34 47.660188 -119.178135 197 36401ft 534kts
28-Dec-18 14:35 47.514807 -119.223374 197 36396ft 533kts
28-Dec-18 14:36 47.369715 -119.268308 197 36399ft 534kts
28-Dec-18 14:37 47.224217 -119.312943 197 36398ft 533kts
28-Dec-18 14:38 47.082752 -119.374147 204 36397ft 528kts
28-Dec-18 14:39 46.942763 -119.440546 203 36400ft 530kts
28-Dec-18 14:40 46.801696 -119.505841 203 36408ft 532kts
28-Dec-18 14:41 46.660357 -119.570666 203 36421ft 533kts
28-Dec-18 14:42 46.518562 -119.635165 202 36433ft 534kts
28-Dec-18 14:43 46.376785 -119.699284 202 36437ft 535kts
28-Dec-18 14:44 46.234190 -119.763411 202 36435ft 535kts
28-Dec-18 14:45 46.091587 -119.827203 202 36431ft 537kts
28-Dec-18 14:46 45.949111 -119.890592 202 36427ft 537kts
28-Dec-18 14:47 45.806385 -119.953748 202 36417ft 537kts
28-Dec-18 14:48 45.663451 -120.016661 202 36408ft 537kts
28-Dec-18 14:49 45.520895 -120.079073 202 36416ft 536kts
28-Dec-18 14:50 45.378116 -120.141251 201 36416ft 537kts
28-Dec-18 14:51 45.235055 -120.203222 201 36413ft 536kts
28-Dec-18 14:52 45.092007 -120.264865 201 36409ft 537kts
28-Dec-18 14:53 44.948873 -120.326218 201 36403ft 538kts
28-Dec-18 14:54 44.805588 -120.387318 200 36396ft 539kts
28-Dec-18 14:55 44.661700 -120.448355 200 36385ft 540kts
28-Dec-18 14:56 44.517999 -120.509000 200 36380ft 540kts
28-Dec-18 14:57 44.374163 -120.569388 200 36372ft 540kts
28-Dec-18 14:58 44.230046 -120.629586 200 36365ft 540kts
28-Dec-18 14:59 44.085933 -120.689472 200 36361ft 540kts
28-Dec-18 15:00 43.941539 -120.749183 199 36362ft 540kts
28-Dec-18 15:01 43.797290 -120.808513 199 36363ft 541kts
28-Dec-18 15:02 43.653535 -120.867352 199 36364ft 540kts
28-Dec-18 15:03 43.509040 -120.926197 199 36363ft 539kts
28-Dec-18 15:04 43.365483 -120.984371 199 36364ft 539kts
28-Dec-18 15:05 43.221040 -121.042614 199 36366ft 539kts
28-Dec-18 15:06 43.077224 -121.100319 199 36373ft 538kts
28-Dec-18 15:07 42.933252 -121.157806 199 36377ft 539kts
28-Dec-18 15:08 42.789198 -121.215043 199 36388ft 539kts
28-Dec-18 15:09 42.645207 -121.271984 199 36390ft 539kts
28-Dec-18 15:11 42.501157 -121.328667 198 36385ft 539kts
28-Dec-18 15:12 42.356885 -121.385168 198 36393ft 539kts
28-Dec-18 15:13 42.213004 -121.441246 198 36392ft 539kts
28-Dec-18 15:14 42.069050 -121.497090 198 36390ft 539kts
28-Dec-18 15:15 41.924865 -121.552761 198 36391ft 539kts
28-Dec-18 15:16 41.781089 -121.608010 198 36388ft 538kts
28-Dec-18 15:17 41.636930 -121.663149 198 36380ft 539kts
28-Dec-18 15:18 41.492542 -121.718121 198 36376ft 539kts
28-Dec-18 15:19 41.347836 -121.772957 198 36385ft 540kts
28-Dec-18 15:20 41.203477 -121.827410 198 36369ft 540kts
28-Dec-18 15:21 41.059070 -121.881633 197 36362ft 540kts
28-Dec-18 15:22 40.914164 -121.935795 197 36357ft 540kts
28-Dec-18 15:23 40.769621 -121.989576 197 36349ft 540kts
28-Dec-18 15:24 40.624688 -122.043255 197 36340ft 539kts
28-Dec-18 15:25 40.480232 -122.096528 197 36340ft 539kts
28-Dec-18 15:26 40.335529 -122.149474 196 36340ft 541kts
28-Dec-18 15:27 40.188414 -122.193050 193 36340ft 541kts
28-Dec-18 15:27 40.066333 -122.229606 194 36340ft 541kts
28-Dec-18 15:29 39.895246 -122.281511 194 36339ft 541kts
28-Dec-18 15:30 39.750915 -122.324992 194 36338ft 541kts
28-Dec-18 15:30 39.628498 -122.361709 194 36336ft 540kts
28-Dec-18 15:32 39.457898 -122.412654 193 36328ft 539kts
28-Dec-18 15:32 39.335384 -122.449085 193 35672ft 550kts
28-Dec-18 15:34 39.159595 -122.501239 193 34385ft 557kts
28-Dec-18 15:34 39.033389 -122.538392 193 33358ft 561kts
28-Dec-18 15:36 38.855685 -122.590216 192 31610ft 562kts
28-Dec-18 15:36 38.728149 -122.626238 192 30138ft 562kts
28-Dec-18 15:37 38.574601 -122.669428 192 28132ft 574kts
28-Dec-18 15:38 38.421180 -122.712616 193 26147ft 555kts
28-Dec-18 15:39 38.272830 -122.753579 190 24123ft 537kts
28-Dec-18 15:40 38.125763 -122.741853 162 21125ft 525kts
28-Dec-18 15:41 37.993089 -122.700104 165 18344ft 460kts
28-Dec-18 15:42 37.875718 -122.647508 151 15364ft 441kts
28-Dec-18 15:43 37.789754 -122.556368 132 13058ft 369kts
28-Dec-18 15:44 37.716963 -122.479927 133 12083ft 326kts
28-Dec-18 15:45 37.647965 -122.406478 134 11577ft 322kts
28-Dec-18 15:46 37.576517 -122.341327 146 10807ft 314kts
28-Dec-18 15:47 37.499009 -122.291460 149 8843ft 305kts
28-Dec-18 15:48 37.443651 -122.220837 118 6908ft 276kts
28-Dec-18 15:49 37.422407 -122.141949 57 5554ft 226kts
28-Dec-18 15:50 37.474156 -122.104458 12 4426ft 206kts
28-Dec-18 15:51 37.520233 -122.140487 316 3746ft 202kts
28-Dec-18 15:52 37.546308 -122.202379 303 2738ft 196kts
28-Dec-18 15:53 37.568917 -122.256385 303 1814ft 154kts
28-Dec-18 15:54 37.588421 -122.303205 301 1006ft 152kts
28-Dec-18 15:55 37.608440 -122.350731 299 205ft 154kts
28-Dec-18 15:56 37.625268 -122.390648 297 26ft 27kts
28-Dec-18 15:57 37.624780 -122.392507 122 26ft 16kts
28-Dec-18 15:58 37.623015 -122.391186 238 26ft 11kts
28-Dec-18 15:59 37.620519 -122.393228 199 26ft 9kts
28-Dec-18 16:00 37.619476 -122.392254 178 26ft 3kts
28-Dec-18 16:01 37.618915 -122.392535 206 26ft 0kts
28-Dec-18 16:02 37.618915 -122.392535 206 26ft 0kts
28-Dec-18 16:03 37.618915 -122.392535 206 26ft 0kts
28-Dec-18 16:04 37.618915 -122.392535 206 26ft 0kts
28-Dec-18 16:05 37.618915 -122.392535 206 26ft 0kts
28-Dec-18 16:06 37.618915 -122.392535 206 26ft 0kts
28-Dec-18 16:07 37.618915 -122.392535 206 26ft 0kts
28-Dec-18 16:08 37.618915 -122.392535 206 26ft 0kts
28-Dec-18 16:09 37.618915 -122.392535 206 26ft 0kts
28-Dec-18 16:10 37.618915 -122.392535 206 26ft 0kts

Navigation Log

Ident Type
Flight plan parsing failed, navigation log unavailable